Tahoma, California
Current Conditions -  °F | °C
As of 3:53 PM on Monday 24 Nov 2014 (Local Time) from KTVL Reporting Station
Clear Clear  
Wind Chill: 42°   Ceiling: Unl
Heat Index: 42°   Visibility: 10mi
Dew Point: 24°   Wind: 0mph
Humidity: 49%   Direction: NA
Pressure: 30.43"   Gusts: NA
Location:  39.05°N, 120.13°W
Report Text: KTVL 242353Z AUTO 00000KT 10SM CLR 06/M04 A3043 RMK AO2 SLP306 T00561044 10106 20044 53005
Loading
Personal Weather Stations






























Interactive Weather Map New forecast layout! Learn more

10-Day Weather Forecast

Advertisements
Track Severe Weather on mobile